Terminal Aerodrome Forecast
Issued by NWS Wilmington, OH

Current Version | Previous Version | Graphics & Text | Print | Product List | Glossary On
Versions: 1 2 3 4 5 6 7 8 9 10 11 12 13 14 15 16 17 18 19 20
379
FTUS41 KILN 181720
TAFCMH
TAF
KCMH 181720Z 1818/1918 23013KT P6SM BKN250
     FM190000 22006KT P6SM SCT025
     FM190600 24004KT P6SM BKN025
     FM191100 27004KT 5SM BR BKN008
     FM191400 27004KT P6SM SCT015
     FM191700 26004KT P6SM FEW250=

USA.gov is the U.S. government's official web portal to all federal, state and local government web resources and services.